Time;durP1;ratioP1;P1;durP2;ratioP2;P2;SDS_P1;SDS_P2;PMS_P1;PMS_P2;Temp;Humidity;BMP_temperature;BMP_pressure;BME280_temperature;BME280_humidity;BME280_pressure;Samples;Min_cycle;Max_cycle;Signal;HPM_P1;HPM_P2
2023/04/04 00:00:02;;;;;;;1.40;0.70;;;22.10;66.40;;;;;;5018459;28;20289;-58
2023/04/04 00:02:29;;;;;;;1.00;0.70;;;22.10;66.40;;;;;;5018136;28;20219;-56
2023/04/04 00:04:55;;;;;;;1.30;0.80;;;22.00;66.30;;;;;;5009905;28;20193;-55
2023/04/04 00:07:22;;;;;;;1.00;0.70;;;22.10;66.40;;;;;;5009834;28;20209;-58
2023/04/04 00:09:49;;;;;;;1.00;0.85;;;22.10;66.50;;;;;;5010133;28;20200;-53
2023/04/04 00:12:17;;;;;;;1.00;0.80;;;22.00;66.40;;;;;;5018362;28;20208;-55
2023/04/04 00:14:43;;;;;;;0.90;0.73;;;22.10;66.50;;;;;;5021709;28;20487;-58
2023/04/04 00:17:10;;;;;;;1.10;0.90;;;22.00;66.40;;;;;;5009695;28;20759;-58
2023/04/04 00:19:37;;;;;;;1.02;0.70;;;22.00;66.50;;;;;;5014767;28;20201;-57
2023/04/04 00:22:04;;;;;;;1.20;0.70;;;22.00;66.30;;;;;;5022359;28;20275;-53
2023/04/04 00:24:30;;;;;;;1.40;0.85;;;22.00;66.50;;;;;;5011978;28;20192;-57
2023/04/04 00:26:57;;;;;;;1.05;0.82;;;22.00;66.50;;;;;;5013705;28;20275;-57
2023/04/04 00:29:25;;;;;;;0.90;0.70;;;22.00;66.50;;;;;;5010126;28;20632;-57
2023/04/04 00:31:52;;;;;;;0.90;0.77;;;22.00;66.40;;;;;;5011807;28;20881;-56
2023/04/04 00:34:18;;;;;;;1.00;0.70;;;21.90;66.40;;;;;;5018586;28;20205;-59
2023/04/04 00:36:46;;;;;;;1.10;0.70;;;22.00;66.40;;;;;;5020221;28;20216;-56
2023/04/04 00:39:13;;;;;;;1.13;0.90;;;21.90;66.40;;;;;;5019135;28;20632;-56
2023/04/04 00:41:39;;;;;;;1.10;0.77;;;21.90;66.40;;;;;;5018705;28;20607;-57
2023/04/04 00:44:06;;;;;;;1.35;0.77;;;21.90;66.40;;;;;;5016332;28;20208;-54
2023/04/04 00:46:34;;;;;;;1.00;0.77;;;21.90;66.50;;;;;;5021092;28;20208;-54
2023/04/04 00:49:01;;;;;;;1.30;0.80;;;21.90;66.40;;;;;;5018731;28;20201;-59
2023/04/04 00:51:27;;;;;;;0.98;0.80;;;21.90;66.50;;;;;;5015635;28;20211;-53
2023/04/04 00:53:54;;;;;;;1.10;0.80;;;21.90;66.50;;;;;;5025235;28;20196;-60
2023/04/04 00:56:21;;;;;;;1.33;1.00;;;21.90;66.40;;;;;;5018033;28;20223;-57
2023/04/04 00:58:48;;;;;;;0.80;0.60;;;21.90;66.40;;;;;;5019597;28;20649;-58
2023/04/04 01:01:15;;;;;;;1.00;0.80;;;21.90;66.50;;;;;;5016575;28;20193;-60
2023/04/04 01:03:44;;;;;;;1.33;0.80;;;21.80;66.40;;;;;;5017219;28;20200;-56
2023/04/04 01:06:11;;;;;;;1.30;0.80;;;21.80;66.50;;;;;;5014722;28;20268;-58
2023/04/04 01:08:38;;;;;;;1.20;0.85;;;21.80;66.40;;;;;;5020012;28;20193;-57
2023/04/04 01:11:05;;;;;;;1.00;0.70;;;21.80;66.50;;;;;;5015393;28;20615;-55
2023/04/04 01:13:32;;;;;;;1.00;0.70;;;21.80;66.40;;;;;;5012523;28;20664;-59
2023/04/04 01:15:59;;;;;;;1.00;0.70;;;21.80;66.50;;;;;;5019707;28;20227;-61
2023/04/04 01:18:27;;;;;;;1.13;0.80;;;21.80;66.40;;;;;;5017117;28;20232;-57
2023/04/04 01:21:00;;;;;;;1.23;1.13;;;21.80;66.50;;;;;;5026211;28;20228;-55
2023/04/04 01:23:35;;;;;;;0.90;0.70;;;21.80;66.40;;;;;;5015859;28;20482;-56
2023/04/04 01:26:04;;;;;;;0.90;0.77;;;21.80;66.50;;;;;;5018138;28;20278;-55
2023/04/04 01:28:31;;;;;;;0.85;0.73;;;21.80;66.60;;;;;;5018381;28;20552;-53
2023/04/04 01:31:00;;;;;;;1.00;0.70;;;21.70;66.40;;;;;;5019665;28;20200;-56
2023/04/04 01:33:29;;;;;;;1.15;0.80;;;21.80;66.40;;;;;;5022404;28;20891;-58
2023/04/04 01:36:10;;;;;;;1.00;0.80;;;21.70;66.30;;;;;;5014338;28;20200;-55
2023/04/04 01:38:48;;;;;;;1.02;0.70;;;21.70;66.40;;;;;;5021253;28;20243;-59
2023/04/04 01:41:19;;;;;;;0.90;0.80;;;21.70;66.50;;;;;;5021254;28;20196;-55
2023/04/04 01:43:46;;;;;;;1.10;0.80;;;21.70;66.40;;;;;;5025220;28;20213;-58
2023/04/04 01:46:13;;;;;;;1.27;0.95;;;21.70;66.40;;;;;;5020141;28;20200;-60
2023/04/04 01:48:40;;;;;;;1.20;0.90;;;21.70;66.30;;;;;;5021019;28;20550;-55
2023/04/04 01:51:07;;;;;;;1.10;0.80;;;21.70;66.50;;;;;;5020182;28;20243;-55
2023/04/04 01:53:35;;;;;;;1.10;0.80;;;21.70;66.60;;;;;;5013663;28;20201;-56
2023/04/04 01:56:01;;;;;;;0.90;0.70;;;21.70;66.50;;;;;;5024558;28;20218;-57
2023/04/04 01:58:29;;;;;;;1.10;0.90;;;21.70;66.40;;;;;;5025756;28;20228;-53
2023/04/04 02:00:57;;;;;;;0.90;0.70;;;21.70;66.60;;;;;;5022209;28;20280;-60
2023/04/04 02:03:23;;;;;;;1.75;0.80;;;21.70;66.60;;;;;;5022181;28;20204;-57
2023/04/04 02:05:50;;;;;;;1.20;0.98;;;21.70;66.50;;;;;;5023658;28;20245;-59
2023/04/04 02:08:17;;;;;;;0.90;0.75;;;21.70;66.60;;;;;;5017041;28;20307;-53
2023/04/04 02:10:43;;;;;;;1.23;0.80;;;21.70;66.50;;;;;;5020738;28;20197;-57
2023/04/04 02:13:11;;;;;;;0.93;0.80;;;21.60;66.50;;;;;;5020396;28;20189;-55
2023/04/04 02:15:39;;;;;;;0.90;0.80;;;21.60;66.40;;;;;;5022730;28;20247;-55
2023/04/04 02:18:06;;;;;;;0.90;0.80;;;21.60;66.40;;;;;;5025555;28;20720;-53
2023/04/04 02:20:32;;;;;;;1.00;0.80;;;21.60;66.50;;;;;;5020193;28;20197;-62
2023/04/04 02:22:59;;;;;;;1.10;0.70;;;21.60;66.40;;;;;;5015440;28;20221;-52
2023/04/04 02:25:26;;;;;;;1.00;0.70;;;21.60;66.40;;;;;;5022596;28;20212;-57
2023/04/04 02:27:53;;;;;;;1.20;0.70;;;21.60;66.50;;;;;;5017090;28;20208;-55
2023/04/04 02:30:20;;;;;;;1.05;0.90;;;21.60;66.40;;;;;;5024100;28;20260;-60
2023/04/04 02:32:49;;;;;;;1.00;0.80;;;21.60;66.50;;;;;;5017276;28;20192;-57
2023/04/04 02:35:16;;;;;;;0.90;0.70;;;21.60;66.60;;;;;;5012993;28;20287;-59
2023/04/04 02:37:45;;;;;;;1.00;0.80;;;21.60;66.50;;;;;;5011318;28;20217;-53
2023/04/04 02:40:13;;;;;;;1.10;0.90;;;21.60;66.60;;;;;;5011672;28;20220;-56
2023/04/04 02:42:43;;;;;;;1.15;0.80;;;21.60;66.50;;;;;;5011601;28;20271;-53
2023/04/04 02:45:13;;;;;;;1.10;0.80;;;21.60;66.40;;;;;;5020912;28;20277;-54
2023/04/04 02:47:40;;;;;;;1.08;0.80;;;21.60;66.60;;;;;;5018945;28;20768;-53
2023/04/04 02:50:12;;;;;;;1.20;0.75;;;21.60;66.50;;;;;;5012011;28;20200;-55
2023/04/04 02:52:38;;;;;;;1.20;0.90;;;21.60;66.40;;;;;;5012563;28;20193;-55
2023/04/04 02:55:07;;;;;;;0.90;0.70;;;21.60;66.50;;;;;;5012879;28;20544;-53
2023/04/04 02:57:33;;;;;;;1.10;0.88;;;21.60;67.40;;;;;;5012660;28;20224;-52
2023/04/04 03:00:02;;;;;;;1.10;1.00;;;21.50;66.40;;;;;;5025770;28;20188;-54
2023/04/04 03:02:28;;;;;;;0.88;0.70;;;21.50;66.40;;;;;;5023882;28;20652;-54
2023/04/04 03:04:55;;;;;;;0.90;0.63;;;21.50;66.40;;;;;;5015134;28;20196;-57
2023/04/04 03:07:23;;;;;;;1.00;0.70;;;21.60;66.50;;;;;;5022243;28;20620;-59
2023/04/04 03:09:50;;;;;;;1.10;0.75;;;21.50;66.20;;;;;;5018419;28;20219;-58
2023/04/04 03:12:20;;;;;;;1.00;0.90;;;21.60;66.50;;;;;;5023271;28;20197;-56
2023/04/04 03:14:47;;;;;;;1.35;0.80;;;21.60;66.50;;;;;;5018670;28;20312;-54
2023/04/04 03:17:14;;;;;;;0.90;0.75;;;21.60;66.50;;;;;;5012708;28;20224;-54
2023/04/04 03:19:41;;;;;;;1.10;0.85;;;21.60;66.50;;;;;;5022019;28;20192;-52
2023/04/04 03:22:07;;;;;;;1.08;0.80;;;21.60;66.50;;;;;;5012013;28;20212;-57
2023/04/04 03:24:35;;;;;;;1.05;0.77;;;21.60;66.50;;;;;;5017383;28;20604;-57
2023/04/04 03:27:02;;;;;;;1.02;0.93;;;21.60;66.50;;;;;;5017459;28;20192;-55
2023/04/04 03:29:29;;;;;;;1.20;0.80;;;21.60;66.40;;;;;;5018779;28;20652;-56
2023/04/04 03:31:56;;;;;;;1.00;0.80;;;21.60;66.40;;;;;;5010721;28;20604;-53
2023/04/04 03:34:23;;;;;;;1.00;0.85;;;21.60;66.60;;;;;;5014939;28;20672;-53
2023/04/04 03:36:50;;;;;;;1.10;0.80;;;21.60;66.50;;;;;;5019634;28;20688;-58
2023/04/04 03:39:17;;;;;;;0.90;0.80;;;21.60;66.40;;;;;;5015208;28;20192;-53
2023/04/04 03:41:45;;;;;;;1.45;1.00;;;21.60;66.50;;;;;;5021334;28;20193;-54
2023/04/04 03:44:12;;;;;;;1.90;0.90;;;21.60;66.40;;;;;;5019877;28;20204;-54
2023/04/04 03:46:38;;;;;;;0.98;0.68;;;21.60;66.40;;;;;;5023016;28;20192;-60
2023/04/04 03:49:05;;;;;;;1.00;0.75;;;21.60;66.40;;;;;;5020439;28;20199;-57
2023/04/04 03:51:32;;;;;;;1.00;0.80;;;21.60;66.60;;;;;;5019942;28;20595;-56
2023/04/04 03:53:59;;;;;;;1.10;0.80;;;21.60;66.50;;;;;;5020936;28;20587;-53
2023/04/04 03:56:26;;;;;;;1.10;0.90;;;21.60;66.50;;;;;;5019011;28;20739;-53
2023/04/04 03:58:56;;;;;;;1.00;0.90;;;21.60;66.40;;;;;;5015830;28;20239;-57
2023/04/04 04:01:23;;;;;;;1.10;0.90;;;21.60;66.50;;;;;;5019268;28;20201;-58
2023/04/04 04:03:49;;;;;;;1.10;0.75;;;21.60;66.40;;;;;;5015841;28;20287;-55
2023/04/04 04:06:16;;;;;;;0.85;0.70;;;21.60;66.40;;;;;;5024797;28;20207;-53
2023/04/04 04:08:43;;;;;;;1.15;0.80;;;21.60;66.30;;;;;;5020336;28;20246;-59
2023/04/04 04:11:09;;;;;;;1.15;0.90;;;21.60;66.30;;;;;;5016482;28;20649;-55
2023/04/04 04:13:37;;;;;;;0.90;0.75;;;21.60;66.30;;;;;;5016143;28;20258;-57
2023/04/04 04:16:06;;;;;;;1.00;0.77;;;21.60;66.20;;;;;;5017989;28;20209;-55
2023/04/04 04:18:33;;;;;;;0.95;0.70;;;21.60;66.40;;;;;;5020456;28;20216;-63
2023/04/04 04:21:01;;;;;;;1.10;0.88;;;21.60;66.40;;;;;;5013234;28;20233;-57
2023/04/04 04:23:28;;;;;;;1.00;0.80;;;21.60;66.50;;;;;;5013710;28;20220;-56
2023/04/04 04:25:55;;;;;;;0.90;0.70;;;21.60;66.60;;;;;;5014568;28;20596;-57
2023/04/04 04:28:22;;;;;;;0.95;0.73;;;21.60;66.60;;;;;;5009929;28;20255;-55
2023/04/04 04:30:50;;;;;;;1.00;0.70;;;21.60;66.60;;;;;;5014705;28;20546;-57
2023/04/04 04:33:18;;;;;;;1.00;0.80;;;21.60;66.40;;;;;;5015990;28;20203;-56
2023/04/04 04:35:45;;;;;;;1.10;0.80;;;21.60;66.60;;;;;;5015988;28;20204;-56
2023/04/04 04:38:12;;;;;;;1.10;0.80;;;21.60;66.60;;;;;;5012350;28;20254;-57
2023/04/04 04:40:38;;;;;;;1.00;0.90;;;21.60;66.40;;;;;;5011642;28;20231;-51
2023/04/04 04:43:05;;;;;;;0.80;0.60;;;21.60;66.40;;;;;;5014354;28;20628;-55
2023/04/04 04:45:32;;;;;;;1.42;0.82;;;21.60;66.60;;;;;;5011073;28;20200;-52
2023/04/04 04:47:58;;;;;;;1.10;0.70;;;21.60;66.60;;;;;;5011430;28;20196;-53
2023/04/04 04:50:26;;;;;;;0.98;0.82;;;21.60;66.20;;;;;;5015020;28;20197;-57
2023/04/04 04:52:53;;;;;;;1.17;1.08;;;21.60;66.50;;;;;;5016142;28;20197;-59
2023/04/04 04:55:20;;;;;;;1.10;0.90;;;21.60;66.30;;;;;;5016765;28;20495;-54
2023/04/04 04:57:47;;;;;;;1.67;1.08;;;21.60;66.30;;;;;;5014057;28;20626;-59
2023/04/04 05:00:15;;;;;;;1.83;0.80;;;21.60;66.40;;;;;;5009838;28;20201;-62
2023/04/04 05:02:42;;;;;;;0.90;0.80;;;21.60;66.40;;;;;;5014255;28;20656;-56
2023/04/04 05:05:09;;;;;;;1.00;0.70;;;21.60;66.30;;;;;;5013255;28;20673;-58
2023/04/04 05:07:37;;;;;;;1.10;0.75;;;21.60;66.20;;;;;;5015443;28;20196;-58
2023/04/04 05:10:04;;;;;;;1.20;1.00;;;21.60;66.20;;;;;;5015620;28;20207;-56
2023/04/04 05:12:31;;;;;;;1.10;0.80;;;21.60;66.40;;;;;;5009745;28;20243;-58
2023/04/04 05:14:58;;;;;;;0.90;0.70;;;21.60;66.30;;;;;;5008676;28;20243;-60
2023/04/04 05:17:24;;;;;;;1.10;0.82;;;21.60;66.30;;;;;;5017160;28;20235;-56
2023/04/04 05:19:51;;;;;;;1.10;0.85;;;21.60;66.20;;;;;;5014871;28;20205;-61
2023/04/04 05:22:18;;;;;;;1.10;0.85;;;21.60;66.70;;;;;;5014507;28;20225;-59
2023/04/04 05:24:46;;;;;;;0.90;0.70;;;21.60;66.50;;;;;;5016651;28;20192;-55
2023/04/04 05:27:12;;;;;;;1.05;0.88;;;21.60;66.60;;;;;;5016977;28;20271;-52
2023/04/04 05:29:39;;;;;;;1.00;0.70;;;21.60;66.60;;;;;;5009863;28;20380;-60
2023/04/04 05:32:06;;;;;;;1.63;0.70;;;21.60;66.60;;;;;;5014777;28;20204;-59
2023/04/04 05:34:32;;;;;;;0.90;0.63;;;21.60;66.60;;;;;;5025065;28;20250;-64
2023/04/04 05:36:59;;;;;;;1.00;0.70;;;21.60;66.60;;;;;;5027329;28;20249;-56
2023/04/04 05:39:26;;;;;;;1.30;1.00;;;21.60;66.70;;;;;;5028599;28;20256;-56
2023/04/04 05:41:54;;;;;;;0.98;0.85;;;21.70;66.70;;;;;;5028989;28;20200;-52
2023/04/04 05:44:20;;;;;;;0.90;0.80;;;21.60;66.70;;;;;;5027112;28;20234;-54
2023/04/04 05:46:47;;;;;;;0.90;0.70;;;21.70;66.80;;;;;;5023159;28;20204;-58
2023/04/04 05:49:14;;;;;;;1.10;0.70;;;21.70;66.80;;;;;;5028794;28;20200;-56
2023/04/04 05:51:41;;;;;;;1.10;0.70;;;21.60;66.70;;;;;;5026553;28;20200;-58
2023/04/04 05:54:08;;;;;;;1.00;0.70;;;21.70;66.80;;;;;;5018721;28;20251;-63
2023/04/04 05:56:34;;;;;;;0.80;0.70;;;21.70;66.80;;;;;;5021475;28;20676;-50
2023/04/04 05:59:02;;;;;;;1.10;0.80;;;21.60;66.70;;;;;;5027777;28;20220;-51
2023/04/04 06:01:29;;;;;;;1.38;0.98;;;21.60;66.70;;;;;;5021930;28;20212;-52
2023/04/04 06:03:56;;;;;;;1.10;0.70;;;21.60;66.60;;;;;;5026233;28;20271;-58
2023/04/04 06:06:23;;;;;;;1.00;0.63;;;21.60;66.60;;;;;;5025269;28;20192;-56
2023/04/04 06:08:50;;;;;;;1.13;0.85;;;21.60;66.60;;;;;;5028715;28;20201;-53
2023/04/04 06:11:17;;;;;;;1.10;0.77;;;21.60;66.60;;;;;;5029079;28;20559;-54
2023/04/04 06:13:43;;;;;;;1.00;0.80;;;21.60;66.60;;;;;;5024841;28;20653;-59
2023/04/04 06:16:11;;;;;;;0.90;0.70;;;21.60;66.60;;;;;;5027324;28;20258;-57
2023/04/04 06:18:38;;;;;;;0.98;0.68;;;21.60;66.70;;;;;;5025201;28;20290;-56
2023/04/04 06:21:05;;;;;;;0.95;0.70;;;21.60;66.70;;;;;;5027693;28;20277;-51
2023/04/04 06:23:31;;;;;;;1.10;0.88;;;21.60;66.70;;;;;;5025715;28;20221;-50
2023/04/04 06:25:58;;;;;;;1.05;0.68;;;21.60;66.80;;;;;;5024055;28;20191;-54
2023/04/04 06:28:25;;;;;;;0.98;0.70;;;21.60;66.80;;;;;;5021764;28;20201;-51
2023/04/04 06:30:52;;;;;;;1.20;0.75;;;21.60;66.70;;;;;;5022911;28;20208;-50
2023/04/04 06:33:20;;;;;;;1.08;0.80;;;21.60;66.70;;;;;;5022148;28;20196;-51
2023/04/04 06:35:46;;;;;;;1.60;0.80;;;21.70;66.90;;;;;;5017468;28;20988;-50
2023/04/04 06:38:13;;;;;;;2.08;0.90;;;21.60;66.70;;;;;;5022663;28;20215;-54
2023/04/04 06:40:40;;;;;;;0.90;0.70;;;21.70;66.80;;;;;;5016654;28;20200;-54
2023/04/04 06:43:06;;;;;;;2.15;1.05;;;21.70;66.80;;;;;;5019538;28;20208;-56
2023/04/04 06:45:34;;;;;;;1.20;0.80;;;21.70;67.20;;;;;;5018274;28;20200;-60
2023/04/04 06:48:02;;;;;;;1.02;0.80;;;21.70;66.80;;;;;;5015731;28;20280;-53
2023/04/04 06:50:32;;;;;;;2.97;1.00;;;21.70;67.00;;;;;;5026592;28;20270;-56
2023/04/04 06:53:01;;;;;;;7.32;0.80;;;21.80;67.10;;;;;;5015943;28;20192;-52
2023/04/04 06:55:28;;;;;;;4.20;0.80;;;21.80;67.10;;;;;;5018028;28;20254;-50
2023/04/04 06:57:55;;;;;;;5.15;0.77;;;21.80;67.10;;;;;;5011201;28;20189;-55
2023/04/04 07:00:21;;;;;;;2.28;0.90;;;21.80;67.00;;;;;;5014349;28;20208;-52
2023/04/04 07:02:49;;;;;;;1.50;0.85;;;21.80;67.00;;;;;;5022586;28;20232;-57
2023/04/04 07:05:16;;;;;;;1.60;0.60;;;21.80;67.00;;;;;;5024487;28;20219;-53
2023/04/04 07:07:45;;;;;;;1.58;0.90;;;21.80;67.00;;;;;;5015516;28;20624;-53
2023/04/04 07:10:11;;;;;;;0.90;0.70;;;21.90;67.10;;;;;;5017578;28;20239;-52
2023/04/04 07:12:38;;;;;;;1.20;0.80;;;21.80;66.90;;;;;;5020166;28;20200;-49
2023/04/04 07:15:05;;;;;;;0.90;0.70;;;21.80;66.90;;;;;;5023745;28;20201;-53
2023/04/04 07:17:32;;;;;;;0.90;0.70;;;21.80;66.80;;;;;;5014735;28;20824;-53
2023/04/04 07:19:59;;;;;;;0.90;0.70;;;21.80;66.90;;;;;;5011477;28;20750;-53
2023/04/04 07:22:25;;;;;;;2.60;1.00;;;21.80;66.90;;;;;;5013190;28;20299;-53
2023/04/04 07:24:53;;;;;;;1.42;0.73;;;21.90;67.00;;;;;;5019154;28;20200;-50
2023/04/04 07:27:20;;;;;;;1.20;0.93;;;21.90;67.00;;;;;;5017555;28;20573;-52
2023/04/04 07:29:47;;;;;;;0.95;0.80;;;21.90;67.00;;;;;;5017470;28;20217;-59
2023/04/04 07:32:13;;;;;;;1.00;0.63;;;21.90;66.90;;;;;;5015069;28;20197;-51
2023/04/04 07:34:40;;;;;;;1.10;0.80;;;21.90;66.90;;;;;;5024507;28;20197;-51
2023/04/04 07:37:07;;;;;;;0.87;0.63;;;21.90;66.90;;;;;;5018922;28;20203;-54
2023/04/04 07:39:33;;;;;;;0.90;0.70;;;21.90;66.90;;;;;;5013805;28;20471;-54
2023/04/04 07:42:01;;;;;;;1.00;0.80;;;21.90;66.80;;;;;;5012490;28;20201;-50
2023/04/04 07:44:28;;;;;;;1.30;0.80;;;21.90;66.90;;;;;;5022894;28;20223;-56
2023/04/04 07:46:55;;;;;;;1.13;0.90;;;21.90;66.80;;;;;;5020422;28;20200;-58
2023/04/04 07:49:21;;;;;;;1.17;0.82;;;21.90;66.80;;;;;;5015381;28;20197;-53
2023/04/04 07:51:48;;;;;;;1.20;0.90;;;21.90;66.80;;;;;;5019889;28;20197;-59
2023/04/04 07:54:15;;;;;;;2.40;1.00;;;21.90;67.00;;;;;;5018821;28;20288;-56
2023/04/04 07:56:42;;;;;;;5.80;1.30;;;21.90;66.80;;;;;;5023459;28;20458;-54
2023/04/04 07:59:10;;;;;;;15.10;1.40;;;21.90;65.80;;;;;;5017055;28;20479;-58
2023/04/04 08:01:37;;;;;;;2.78;0.98;;;21.90;66.10;;;;;;5018022;28;20228;-59
2023/04/04 08:04:04;;;;;;;2.63;1.08;;;21.90;66.50;;;;;;5026392;28;20236;-60
2023/04/04 08:06:32;;;;;;;2.13;1.13;;;22.00;66.80;;;;;;5018721;28;20553;-63
2023/04/04 08:08:58;;;;;;;4.03;1.20;;;22.00;67.00;;;;;;5021011;28;20656;-63
2023/04/04 08:11:26;;;;;;;2.75;1.10;;;22.00;67.10;;;;;;5022376;28;20270;-65
2023/04/04 08:13:53;;;;;;;1.00;0.70;;;22.10;67.40;;;;;;5016220;28;20205;-65
2023/04/04 08:16:21;;;;;;;1.00;0.90;;;22.00;67.40;;;;;;5019836;28;20463;-65
2023/04/04 08:18:47;;;;;;;1.83;1.08;;;22.10;67.60;;;;;;5009447;28;20488;-61
2023/04/04 08:21:14;;;;;;;1.10;0.90;;;22.10;67.70;;;;;;5014158;28;20657;-59
2023/04/04 08:23:41;;;;;;;10.40;1.70;;;22.10;67.80;;;;;;5019431;28;20793;-61
2023/04/04 08:26:07;;;;;;;1.43;1.00;;;22.20;68.00;;;;;;5019639;28;20498;-63
2023/04/04 08:28:34;;;;;;;2.17;1.00;;;22.20;68.00;;;;;;5022912;28;20454;-65
2023/04/04 08:31:00;;;;;;;1.50;1.00;;;22.20;68.00;;;;;;5023357;28;20200;-66
2023/04/04 08:33:28;;;;;;;1.00;0.70;;;22.20;68.00;;;;;;5020757;28;20569;-63
2023/04/04 08:35:56;;;;;;;1.10;0.97;;;22.30;68.10;;;;;;5018711;28;20553;-61
2023/04/04 08:38:23;;;;;;;1.00;0.80;;;22.30;68.10;;;;;;5019187;28;20997;-64
2023/04/04 08:40:50;;;;;;;1.77;0.90;;;22.30;68.00;;;;;;5019343;28;20548;-67
2023/04/04 08:43:17;;;;;;;2.80;1.10;;;22.30;68.00;;;;;;5019515;28;20478;-65
2023/04/04 08:45:46;;;;;;;1.87;0.90;;;22.30;68.10;;;;;;5023788;28;20501;-67
2023/04/04 08:48:15;;;;;;;1.20;0.80;;;22.40;68.20;;;;;;5020042;28;20447;-66
2023/04/04 08:50:44;;;;;;;1.00;0.90;;;22.40;68.20;;;;;;5017133;28;20464;-65
2023/04/04 08:53:11;;;;;;;1.13;1.00;;;22.40;68.20;;;;;;5021103;28;20455;-67
2023/04/04 08:55:38;;;;;;;1.53;0.97;;;22.40;68.20;;;;;;5017534;28;20984;-65
2023/04/04 08:58:05;;;;;;;2.70;0.80;;;22.40;68.20;;;;;;5017051;28;20494;-65
2023/04/04 09:00:31;;;;;;;1.20;0.90;;;22.40;68.10;;;;;;5023741;28;20478;-65
2023/04/04 09:03:05;;;;;;;1.20;0.90;;;22.40;68.20;;;;;;5015757;28;20447;-65
2023/04/04 09:05:32;;;;;;;1.00;0.70;;;22.50;68.20;;;;;;5019467;28;20455;-66
2023/04/04 09:08:01;;;;;;;2.50;0.90;;;22.50;68.20;;;;;;5018985;28;20455;-60
2023/04/04 09:10:28;;;;;;;2.90;0.90;;;22.50;68.20;;;;;;5019726;28;20533;-60
2023/04/04 09:12:56;;;;;;;1.10;0.87;;;22.50;68.10;;;;;;5014596;28;20460;-65
2023/04/04 09:15:23;;;;;;;1.20;0.77;;;22.50;68.10;;;;;;5012638;28;20467;-66
2023/04/04 09:17:49;;;;;;;2.30;0.90;;;22.50;68.10;;;;;;5028254;28;20532;-71
2023/04/04 09:20:39;;;;;;;0.90;0.70;;;22.50;68.10;;;;;;5027047;28;20883;-65
2023/04/04 09:23:08;;;;;;;1.20;0.97;;;22.60;68.20;;;;;;5013667;28;20482;-62
2023/04/04 09:25:35;;;;;;;2.60;1.20;;;22.60;68.20;;;;;;5019773;28;20466;-65
2023/04/04 09:28:04;;;;;;;1.10;0.90;;;22.60;68.10;;;;;;5021040;28;20467;-66
2023/04/04 09:30:31;;;;;;;1.27;0.97;;;22.60;68.10;;;;;;5012805;28;20860;-62
2023/04/04 09:33:00;;;;;;;1.30;0.90;;;22.60;68.20;;;;;;5024054;28;20451;-65
2023/04/04 09:35:27;;;;;;;1.27;0.93;;;22.60;68.20;;;;;;5018656;28;20459;-62
2023/04/04 09:37:54;;;;;;;4.40;0.90;;;22.60;68.20;;;;;;5023247;28;20517;-66
2023/04/04 09:40:25;;;;;;;1.10;0.80;;;22.60;68.20;;;;;;5027962;28;21053;-65
2023/04/04 09:42:54;;;;;;;1.10;0.90;;;22.60;68.20;;;;;;5023730;28;20554;-61
2023/04/04 09:45:24;;;;;;;1.10;0.80;;;22.70;68.30;;;;;;5022686;28;20538;-66
2023/04/04 09:47:51;;;;;;;2.73;0.90;;;22.70;68.30;;;;;;5031523;28;20455;-66
2023/04/04 09:50:22;;;;;;;1.10;0.80;;;22.70;68.30;;;;;;5018997;28;21000;-63
2023/04/04 09:52:49;;;;;;;1.17;0.80;;;22.70;68.20;;;;;;5024431;28;20512;-69
2023/04/04 09:55:17;;;;;;;1.00;0.80;;;22.70;68.10;;;;;;5026495;28;20901;-66
2023/04/04 09:57:46;;;;;;;1.43;0.80;;;22.70;68.10;;;;;;5023960;28;20629;-66
2023/04/04 10:00:20;;;;;;;1.00;0.90;;;22.70;68.10;;;;;;5023576;28;20479;-74
2023/04/04 10:02:48;;;;;;;1.00;0.90;;;22.80;68.20;;;;;;5021070;28;21372;-60
2023/04/04 10:05:16;;;;;;;2.30;1.10;;;22.80;68.20;;;;;;5018148;28;20465;-65
2023/04/04 10:07:46;;;;;;;2.43;0.90;;;22.80;68.20;;;;;;5030737;28;20462;-64
2023/04/04 10:10:15;;;;;;;3.77;1.20;;;22.80;68.10;;;;;;5022110;28;20459;-66
2023/04/04 10:12:47;;;;;;;1.00;0.90;;;22.80;68.20;;;;;;5019032;28;20522;-70
2023/04/04 10:15:16;;;;;;;1.60;1.30;;;22.90;68.20;;;;;;5011861;28;20487;-61
2023/04/04 10:17:44;;;;;;;1.10;0.80;;;22.80;68.10;;;;;;5026435;28;20461;-55
2023/04/04 10:20:11;;;;;;;1.30;1.03;;;22.90;68.20;;;;;;5016015;28;20817;-53
2023/04/04 10:22:39;;;;;;;1.10;0.87;;;22.90;68.20;;;;;;5017008;28;21082;-57
2023/04/04 10:25:08;;;;;;;2.40;0.90;;;22.90;68.20;;;;;;5013861;28;20890;-59
2023/04/04 10:27:36;;;;;;;1.87;0.90;;;22.90;68.10;;;;;;5030108;28;20447;-57
2023/04/04 10:30:06;;;;;;;1.10;0.80;;;22.90;68.20;;;;;;5020553;28;20812;-69
2023/04/04 10:32:38;;;;;;;3.00;0.97;;;22.90;68.20;;;;;;5019369;28;20871;-68
2023/04/04 10:35:09;;;;;;;3.57;1.60;;;22.80;65.40;;;;;;5024251;28;20492;-68
2023/04/04 10:37:42;;;;;;;2.60;1.63;;;22.50;56.00;;;;;;5021618;28;20459;-65
2023/04/04 10:40:13;;;;;;;6.03;1.90;;;22.10;52.50;;;;;;5025521;28;20478;-69
2023/04/04 10:42:42;;;;;;;3.45;1.95;;;21.90;50.80;;;;;;5018708;28;20532;-54
2023/04/04 10:45:11;;;;;;;8.23;2.00;;;21.70;48.30;;;;;;5014650;28;20588;-61
2023/04/04 10:47:39;;;;;;;1.98;1.20;;;21.60;46.90;;;;;;5023045;28;20219;-58
2023/04/04 10:50:09;;;;;;;4.20;1.80;;;21.50;46.50;;;;;;5022961;28;20254;-61
2023/04/04 10:52:37;;;;;;;2.78;1.70;;;21.40;45.80;;;;;;5018893;28;20546;-69
2023/04/04 10:55:07;;;;;;;2.45;1.50;;;21.40;44.60;;;;;;5024385;28;20272;-67
2023/04/04 10:57:36;;;;;;;2.08;1.88;;;21.30;45.80;;;;;;5019394;28;20677;-66
2023/04/04 11:00:06;;;;;;;1.73;1.60;;;21.50;47.80;;;;;;5021211;28;20270;-69
2023/04/04 11:02:48;;;;;;;2.22;1.20;;;21.80;49.80;;;;;;5016852;28;20201;-56
2023/04/04 11:05:21;;;;;;;2.05;1.40;;;21.90;50.90;;;;;;5025647;28;20564;-68
2023/04/04 11:07:48;;;;;;;4.03;1.60;;;22.00;52.00;;;;;;5019143;28;20204;-73
2023/04/04 11:10:17;;;;;;;1.77;1.30;;;22.00;52.00;;;;;;5013950;28;20204;-67
2023/04/04 11:12:46;;;;;;;2.00;1.30;;;22.00;52.90;;;;;;5011248;28;21294;-73
2023/04/04 11:15:15;;;;;;;3.85;1.77;;;22.10;53.60;;;;;;5017647;28;20462;-68
2023/04/04 11:17:58;;;;;;;1.60;1.00;;;22.20;54.40;;;;;;5024779;28;20205;-65
2023/04/04 11:20:30;;;;;;;3.05;0.90;;;22.20;55.20;;;;;;5019278;28;20302;-62
2023/04/04 11:23:20;;;;;;;1.63;1.00;;;22.10;56.50;;;;;;5015277;28;20212;-63
2023/04/04 11:25:51;;;;;;;2.27;1.00;;;22.10;56.00;;;;;;5019515;28;20461;-64
2023/04/04 11:28:44;;;;;;;3.20;1.20;;;22.20;56.80;;;;;;5028845;28;20551;-63
2023/04/04 11:31:28;;;;;;;1.63;0.93;;;22.20;56.50;;;;;;4999766;28;20563;-60
2023/04/04 11:33:58;;;;;;;2.10;1.47;;;22.20;57.20;;;;;;5021456;28;20448;-63
2023/04/04 11:36:50;;;;;;;2.47;1.50;;;22.20;56.90;;;;;;5012618;28;20529;-65
2023/04/04 11:39:24;;;;;;;3.30;0.90;;;22.30;57.00;;;;;;5012571;28;20460;-66
2023/04/04 11:41:53;;;;;;;1.70;1.10;;;22.30;57.20;;;;;;5024784;28;20440;-67
2023/04/04 11:44:21;;;;;;;1.73;1.00;;;22.30;57.20;;;;;;5017804;28;20517;-67
2023/04/04 11:46:50;;;;;;;1.47;1.00;;;22.20;57.20;;;;;;5017089;28;20506;-66
2023/04/04 11:49:18;;;;;;;1.10;0.85;;;22.30;57.50;;;;;;5020713;28;20493;-67
2023/04/04 11:51:45;;;;;;;1.30;1.00;;;22.30;57.60;;;;;;5016084;28;20202;-66
2023/04/04 11:54:15;;;;;;;1.52;1.40;;;22.20;57.70;;;;;;5023230;28;20471;-67
2023/04/04 11:56:43;;;;;;;2.40;1.00;;;22.30;57.80;;;;;;5020524;28;20728;-67
2023/04/04 11:59:11;;;;;;;1.30;1.07;;;22.20;57.70;;;;;;5010156;28;20459;-65
2023/04/04 12:01:38;;;;;;;1.33;1.10;;;22.20;57.80;;;;;;5018013;28;20475;-63
2023/04/04 12:04:05;;;;;;;1.63;1.03;;;22.30;58.00;;;;;;5014808;28;20196;-65
2023/04/04 12:06:34;;;;;;;1.20;0.90;;;22.20;58.10;;;;;;5023867;28;20459;-64
2023/04/04 12:09:02;;;;;;;1.45;0.93;;;22.20;58.20;;;;;;5024646;28;20199;-65
2023/04/04 12:11:30;;;;;;;1.43;1.10;;;22.20;58.00;;;;;;5021665;28;20417;-64
2023/04/04 12:13:57;;;;;;;1.93;0.83;;;22.20;58.20;;;;;;5017197;28;20465;-63
2023/04/04 12:16:24;;;;;;;1.10;0.80;;;22.20;58.20;;;;;;5015651;28;20462;-65
2023/04/04 12:18:51;;;;;;;1.00;0.87;;;22.20;58.30;;;;;;5021338;28;20444;-63
2023/04/04 12:21:17;;;;;;;1.83;0.90;;;22.20;58.40;;;;;;5010051;28;20490;-63
2023/04/04 12:23:47;;;;;;;3.20;1.17;;;22.20;58.50;;;;;;5013823;28;20470;-63
2023/04/04 12:26:14;;;;;;;1.30;1.00;;;22.20;58.50;;;;;;5024727;28;20766;-64
2023/04/04 12:28:44;;;;;;;1.40;1.00;;;22.20;58.60;;;;;;5021204;28;20207;-64
2023/04/04 12:31:12;;;;;;;1.60;1.10;;;22.20;58.80;;;;;;5018869;28;20777;-65
2023/04/04 12:33:41;;;;;;;2.23;1.13;;;22.20;58.90;;;;;;5016686;28;20196;-64
2023/04/04 12:36:08;;;;;;;1.25;1.00;;;22.20;58.80;;;;;;5009766;28;20616;-63
2023/04/04 12:38:39;;;;;;;1.10;0.88;;;22.20;58.90;;;;;;5019192;28;20203;-64
2023/04/04 12:41:09;;;;;;;1.27;1.15;;;22.20;58.90;;;;;;5016941;28;20258;-64
2023/04/04 12:43:41;;;;;;;1.10;0.87;;;22.20;59.00;;;;;;5014063;28;20205;-63
2023/04/04 12:46:08;;;;;;;1.92;1.40;;;22.20;59.10;;;;;;5022213;28;20866;-66
2023/04/04 12:48:36;;;;;;;1.05;0.85;;;22.20;59.20;;;;;;5025272;28;20203;-67
2023/04/04 12:51:04;;;;;;;1.38;1.00;;;22.20;59.20;;;;;;5018415;28;20199;-67